createdAt,value
2023-05-14T00:00:24.521Z,7.00
2023-05-14T00:03:11.399Z,7.60
2023-05-14T00:05:38.204Z,7.40
2023-05-14T00:08:05.587Z,7.30
2023-05-14T00:10:32.362Z,7.40
2023-05-14T00:12:58.987Z,8.50
2023-05-14T00:15:25.666Z,8.20
2023-05-14T00:17:52.396Z,7.50
2023-05-14T00:20:19.075Z,7.90
2023-05-14T00:22:45.526Z,7.20
2023-05-14T00:25:12.245Z,6.90
2023-05-14T00:27:38.780Z,7.40
2023-05-14T00:30:08.504Z,7.70
2023-05-14T00:32:35.219Z,6.60
2023-05-14T00:35:03.724Z,7.60
2023-05-14T00:37:30.407Z,7.90
2023-05-14T00:39:57.737Z,7.30
2023-05-14T00:42:24.361Z,6.60
2023-05-14T00:44:50.846Z,6.80
2023-05-14T00:47:17.619Z,7.00
2023-05-14T00:49:44.979Z,7.60
2023-05-14T00:52:11.731Z,8.50
2023-05-14T00:54:38.490Z,6.80
2023-05-14T00:57:06.238Z,7.30
2023-05-14T00:59:33.085Z,7.30
2023-05-14T01:01:59.762Z,7.10
2023-05-14T01:04:26.548Z,7.50
2023-05-14T01:07:16.849Z,7.10
2023-05-14T01:09:54.318Z,7.50
2023-05-14T01:12:37.780Z,7.60
2023-05-14T01:15:10.900Z,6.70
2023-05-14T01:17:42.954Z,7.00
2023-05-14T01:20:10.152Z,6.60
2023-05-14T01:22:37.309Z,7.20
2023-05-14T01:25:05.384Z,6.80
2023-05-14T01:27:47.108Z,6.50
2023-05-14T01:30:30.495Z,7.90
2023-05-14T01:32:59.926Z,6.60
2023-05-14T01:35:28.323Z,7.20
2023-05-14T01:37:56.870Z,6.90
2023-05-14T01:40:24.938Z,7.30
2023-05-14T01:42:52.852Z,6.50
2023-05-14T01:45:20.536Z,6.70
2023-05-14T01:47:47.482Z,6.70
2023-05-14T01:50:13.981Z,6.90
2023-05-14T01:52:40.835Z,6.70
2023-05-14T01:55:08.015Z,6.50
2023-05-14T01:57:34.574Z,6.20
2023-05-14T02:00:01.474Z,6.90
2023-05-14T02:02:29.118Z,6.50
2023-05-14T02:04:55.702Z,6.20
2023-05-14T02:07:22.284Z,6.10
2023-05-14T02:09:48.919Z,7.20
2023-05-14T02:12:15.373Z,6.10
2023-05-14T02:14:42.007Z,6.30
2023-05-14T02:17:08.844Z,6.00
2023-05-14T02:19:35.438Z,5.60
2023-05-14T02:22:01.994Z,6.00
2023-05-14T02:24:28.641Z,5.70
2023-05-14T02:26:55.166Z,6.10
2023-05-14T02:29:22.816Z,6.80
2023-05-14T02:31:49.844Z,6.20
2023-05-14T02:34:16.641Z,6.70
2023-05-14T02:36:43.349Z,6.00
2023-05-14T02:39:10.135Z,5.70
2023-05-14T02:41:37.055Z,5.50
2023-05-14T02:44:03.705Z,6.50
2023-05-14T02:46:31.685Z,5.50
2023-05-14T02:48:58.380Z,6.50
2023-05-14T02:51:25.907Z,6.70
2023-05-14T02:53:55.339Z,6.70
2023-05-14T02:56:21.982Z,6.90
2023-05-14T02:58:48.477Z,6.90
2023-05-14T03:01:15.153Z,6.50
2023-05-14T03:03:42.273Z,7.00
2023-05-14T03:06:09.187Z,6.40
2023-05-14T03:08:35.970Z,6.10
2023-05-14T03:11:02.568Z,5.80
2023-05-14T03:13:29.150Z,6.50
2023-05-14T03:15:56.405Z,5.90
2023-05-14T03:18:23.154Z,6.60
2023-05-14T03:20:50.045Z,5.90
2023-05-14T03:23:16.606Z,6.80
2023-05-14T03:25:43.058Z,6.20
2023-05-14T03:28:09.744Z,6.30
2023-05-14T03:30:36.369Z,6.80
2023-05-14T03:33:03.612Z,6.80
2023-05-14T03:35:30.890Z,6.40
2023-05-14T03:37:58.636Z,6.50
2023-05-14T03:40:25.755Z,6.60
2023-05-14T03:42:52.503Z,6.60
2023-05-14T03:45:19.460Z,6.60
2023-05-14T03:47:45.942Z,6.70
2023-05-14T03:50:12.399Z,6.80
2023-05-14T03:52:39.898Z,6.00
2023-05-14T03:55:06.796Z,6.80
2023-05-14T03:57:33.332Z,6.30
2023-05-14T03:59:59.882Z,5.90
2023-05-14T04:02:26.490Z,6.60
2023-05-14T04:04:54.098Z,7.20
2023-05-14T04:07:20.925Z,7.50
2023-05-14T04:09:47.553Z,7.10
2023-05-14T04:12:14.055Z,7.10
2023-05-14T04:14:40.884Z,8.30
2023-05-14T04:17:07.579Z,7.90
2023-05-14T04:19:34.330Z,7.60
2023-05-14T04:22:00.960Z,7.40
2023-05-14T04:24:27.529Z,7.30
2023-05-14T04:26:54.251Z,7.20
2023-05-14T04:29:20.695Z,7.30
2023-05-14T04:31:49.004Z,7.10
2023-05-14T04:34:15.615Z,7.20
2023-05-14T04:36:42.077Z,7.70
2023-05-14T04:39:14.758Z,7.60
2023-05-14T04:41:42.098Z,7.60
2023-05-14T04:44:08.568Z,7.50
2023-05-14T04:46:35.333Z,7.60
2023-05-14T04:49:02.028Z,7.10
2023-05-14T04:51:28.499Z,7.00
2023-05-14T04:53:54.927Z,8.30
2023-05-14T04:56:21.608Z,7.70
2023-05-14T04:58:56.173Z,7.20
2023-05-14T05:01:23.202Z,8.50
2023-05-14T05:03:50.272Z,8.30
2023-05-14T05:06:16.810Z,8.30
2023-05-14T05:08:43.496Z,7.50
2023-05-14T05:11:10.023Z,7.20
2023-05-14T05:13:36.504Z,7.70
2023-05-14T05:16:03.161Z,6.40
2023-05-14T05:18:29.689Z,7.10
2023-05-14T05:20:56.309Z,7.80
2023-05-14T05:23:23.103Z,7.00
2023-05-14T05:25:50.453Z,7.40
2023-05-14T05:28:20.031Z,7.50
2023-05-14T05:30:46.657Z,6.90
2023-05-14T05:33:13.470Z,6.80
2023-05-14T05:35:40.226Z,7.10
2023-05-14T05:38:06.897Z,7.20
2023-05-14T05:40:33.389Z,7.00
2023-05-14T05:43:00.099Z,7.00
2023-05-14T05:45:26.677Z,6.70
2023-05-14T05:47:53.191Z,6.40
2023-05-14T05:50:20.233Z,6.00
2023-05-14T05:52:46.935Z,6.50
2023-05-14T05:55:13.407Z,6.00
2023-05-14T05:57:39.946Z,6.20
2023-05-14T06:00:12.953Z,6.00
2023-05-14T06:02:41.021Z,6.30
2023-05-14T06:05:09.166Z,6.50
2023-05-14T06:07:35.872Z,6.20
2023-05-14T06:10:02.896Z,5.60
2023-05-14T06:12:29.524Z,5.60
2023-05-14T06:14:57.267Z,5.50
2023-05-14T06:17:24.840Z,5.60
2023-05-14T06:19:51.819Z,6.00
2023-05-14T06:22:19.148Z,6.20
2023-05-14T06:24:45.871Z,4.90
2023-05-14T06:27:12.437Z,5.60
2023-05-14T06:29:39.132Z,5.40
2023-05-14T06:32:06.205Z,5.50
2023-05-14T06:34:33.054Z,4.50
2023-05-14T06:37:02.150Z,4.10
2023-05-14T06:39:28.724Z,3.90
2023-05-14T06:41:55.200Z,4.30
2023-05-14T06:44:23.292Z,4.40
2023-05-14T06:46:49.885Z,4.60
2023-05-14T06:49:16.472Z,3.60
2023-05-14T06:51:43.218Z,3.90
2023-05-14T06:54:09.844Z,2.90
2023-05-14T06:56:36.352Z,3.20
2023-05-14T06:59:02.885Z,4.00
2023-05-14T07:01:34.563Z,3.10
2023-05-14T07:04:01.178Z,2.50
2023-05-14T07:06:27.822Z,3.10
2023-05-14T07:08:54.579Z,3.50
2023-05-14T07:11:21.598Z,3.10
2023-05-14T07:13:48.164Z,2.20
2023-05-14T07:16:14.745Z,2.60
2023-05-14T07:18:41.359Z,2.50
2023-05-14T07:21:07.921Z,1.70
2023-05-14T07:23:36.125Z,1.80
2023-05-14T07:26:06.450Z,2.00
2023-05-14T07:28:34.139Z,1.50
2023-05-14T07:31:00.884Z,1.80
2023-05-14T07:33:27.509Z,1.10
2023-05-14T07:35:54.151Z,1.50
2023-05-14T07:38:20.903Z,1.50
2023-05-14T07:40:47.578Z,1.10
2023-05-14T07:43:14.103Z,1.30
2023-05-14T07:45:40.687Z,1.50
2023-05-14T07:48:07.451Z,1.50
2023-05-14T07:50:34.360Z,1.40
2023-05-14T07:53:01.111Z,1.40
2023-05-14T07:55:27.656Z,1.00
2023-05-14T07:57:54.558Z,0.70
2023-05-14T08:00:21.549Z,1.40
2023-05-14T08:02:48.795Z,1.30
2023-05-14T08:05:16.109Z,1.20
2023-05-14T08:07:42.781Z,1.30
2023-05-14T08:10:09.683Z,0.90
2023-05-14T08:12:36.208Z,0.90
2023-05-14T08:15:03.040Z,1.00
2023-05-14T08:17:29.767Z,1.10
2023-05-14T08:19:56.336Z,0.60
2023-05-14T08:22:22.772Z,1.00
2023-05-14T08:24:49.617Z,0.80
2023-05-14T08:27:16.578Z,0.80
2023-05-14T08:29:43.046Z,1.20
2023-05-14T08:32:21.992Z,1.20
2023-05-14T08:34:50.107Z,1.10
2023-05-14T08:37:16.642Z,0.40
2023-05-14T08:39:43.218Z,1.00
2023-05-14T08:42:12.275Z,0.70
2023-05-14T08:44:51.802Z,0.70
2023-05-14T08:47:21.153Z,1.00
2023-05-14T08:49:54.441Z,1.00
2023-05-14T08:52:22.289Z,1.10
2023-05-14T08:54:53.073Z,1.00
2023-05-14T08:57:23.215Z,0.80
2023-05-14T08:59:50.695Z,1.00
2023-05-14T09:02:22.235Z,1.00
2023-05-14T09:04:57.097Z,0.90
2023-05-14T09:07:24.306Z,0.80
2023-05-14T09:09:52.147Z,1.20
2023-05-14T09:12:19.571Z,1.30
2023-05-14T09:14:47.596Z,1.10
2023-05-14T09:17:16.131Z,0.70
2023-05-14T09:19:43.680Z,1.10
2023-05-14T09:22:15.002Z,0.80
2023-05-14T09:24:42.408Z,0.60
2023-05-14T09:27:15.240Z,1.10
2023-05-14T09:29:42.924Z,0.90
2023-05-14T09:32:10.282Z,0.60
2023-05-14T09:34:37.506Z,0.60
2023-05-14T09:37:06.052Z,0.90
2023-05-14T09:39:35.544Z,0.70
2023-05-14T09:42:02.457Z,0.90
2023-05-14T09:44:29.281Z,0.70
2023-05-14T09:46:55.993Z,1.00
2023-05-14T09:49:22.666Z,0.80
2023-05-14T09:51:50.083Z,0.70
2023-05-14T09:54:16.977Z,0.80
2023-05-14T09:56:43.961Z,0.80
2023-05-14T09:59:10.641Z,0.80
2023-05-14T10:01:37.901Z,1.00
2023-05-14T10:04:09.321Z,0.70
2023-05-14T10:06:38.068Z,0.90
2023-05-14T10:09:16.337Z,0.80
2023-05-14T10:11:52.651Z,0.90
2023-05-14T10:14:52.976Z,1.00
2023-05-14T10:17:21.569Z,0.90
2023-05-14T10:19:54.244Z,1.00
2023-05-14T10:22:27.168Z,0.70
2023-05-14T10:24:55.662Z,1.00
2023-05-14T10:27:25.583Z,1.00
2023-05-14T10:29:54.182Z,0.90
2023-05-14T10:32:25.279Z,0.90
2023-05-14T10:34:52.586Z,0.80
2023-05-14T10:37:25.305Z,1.00
2023-05-14T10:39:58.801Z,1.00
2023-05-14T10:42:27.234Z,0.80
2023-05-14T10:44:57.956Z,0.80
2023-05-14T10:47:38.180Z,0.70
2023-05-14T10:50:08.860Z,1.30
2023-05-14T10:52:36.287Z,0.80
2023-05-14T10:55:12.695Z,0.80
2023-05-14T10:57:42.058Z,0.80
2023-05-14T11:00:10.077Z,0.90
2023-05-14T11:02:39.058Z,0.80
2023-05-14T11:05:15.042Z,1.00
2023-05-14T11:07:47.779Z,1.00
2023-05-14T11:10:19.377Z,1.00
2023-05-14T11:12:48.737Z,0.70
2023-05-14T11:15:18.313Z,1.30
2023-05-14T11:17:46.387Z,1.20
2023-05-14T11:20:13.859Z,0.80
2023-05-14T11:22:42.598Z,0.90
2023-05-14T11:25:10.662Z,0.90
2023-05-14T11:27:38.529Z,0.80
2023-05-14T11:30:11.566Z,0.60
2023-05-14T11:32:38.246Z,0.90
2023-05-14T11:35:05.444Z,1.10
2023-05-14T11:37:32.125Z,1.00
2023-05-14T11:39:59.868Z,1.00
2023-05-14T11:42:26.523Z,1.20
2023-05-14T11:44:53.499Z,1.70
2023-05-14T11:47:21.403Z,2.00
2023-05-14T11:49:48.969Z,1.00
2023-05-14T11:52:18.585Z,0.90
2023-05-14T11:54:45.798Z,1.20
2023-05-14T11:57:15.613Z,1.20
2023-05-14T11:59:42.946Z,3.00
2023-05-14T12:02:14.509Z,1.70
2023-05-14T12:04:42.312Z,1.40
2023-05-14T12:07:14.054Z,0.90
2023-05-14T12:09:48.443Z,1.10
2023-05-14T12:12:19.215Z,0.90
2023-05-14T12:14:46.216Z,0.70
2023-05-14T12:17:16.819Z,1.70
2023-05-14T12:19:45.101Z,1.30
2023-05-14T12:22:14.834Z,1.20
2023-05-14T12:24:43.393Z,1.00
2023-05-14T12:27:10.247Z,1.10
2023-05-14T12:29:40.702Z,1.00
2023-05-14T12:32:08.905Z,1.20
2023-05-14T12:34:37.490Z,1.20
2023-05-14T12:37:05.930Z,1.10
2023-05-14T12:39:34.210Z,1.10
2023-05-14T12:42:01.632Z,1.20
2023-05-14T12:44:28.484Z,0.90
2023-05-14T12:46:55.643Z,0.70
2023-05-14T12:49:22.284Z,1.10
2023-05-14T12:51:48.801Z,1.10
2023-05-14T12:54:16.944Z,1.70
2023-05-14T12:56:43.479Z,0.80
2023-05-14T12:59:10.127Z,1.00
2023-05-14T13:01:37.721Z,0.70
2023-05-14T13:04:05.121Z,0.90
2023-05-14T13:06:32.143Z,0.80
2023-05-14T13:09:01.185Z,0.70
2023-05-14T13:11:29.677Z,0.80
2023-05-14T13:13:56.199Z,0.80
2023-05-14T13:16:22.873Z,0.70
2023-05-14T13:18:49.525Z,1.10
2023-05-14T13:21:16.130Z,1.30
2023-05-14T13:23:42.991Z,1.30
2023-05-14T13:26:09.610Z,0.70
2023-05-14T13:28:36.160Z,1.30
2023-05-14T13:31:06.339Z,0.80
2023-05-14T13:33:36.678Z,0.90
2023-05-14T13:36:03.965Z,1.00
2023-05-14T13:38:30.613Z,0.90
2023-05-14T13:41:01.265Z,0.80
2023-05-14T13:43:32.186Z,0.90
2023-05-14T13:46:00.450Z,1.00
2023-05-14T13:48:27.332Z,1.20
2023-05-14T13:50:54.419Z,0.70
2023-05-14T13:53:22.830Z,0.70
2023-05-14T13:55:50.188Z,0.70
2023-05-14T13:58:16.858Z,1.00
2023-05-14T14:00:43.380Z,1.10
2023-05-14T14:03:10.022Z,1.10
2023-05-14T14:05:37.263Z,0.70
2023-05-14T14:08:13.077Z,0.80
2023-05-14T14:10:49.257Z,0.90
2023-05-14T14:13:15.815Z,0.80
2023-05-14T14:15:43.164Z,0.80
2023-05-14T14:18:09.949Z,0.90
2023-05-14T14:20:36.551Z,0.80
2023-05-14T14:23:03.291Z,1.20
2023-05-14T14:25:30.074Z,0.70
2023-05-14T14:27:56.559Z,0.90
2023-05-14T14:30:23.128Z,0.80
2023-05-14T14:32:50.265Z,0.90
2023-05-14T14:35:18.526Z,1.10
2023-05-14T14:37:48.704Z,1.00
2023-05-14T14:40:16.240Z,1.00
2023-05-14T14:42:43.360Z,1.20
2023-05-14T14:45:10.791Z,0.80
2023-05-14T14:47:37.501Z,1.10
2023-05-14T14:50:04.930Z,0.90
2023-05-14T14:52:31.518Z,0.70
2023-05-14T14:54:58.260Z,0.80
2023-05-14T14:57:26.158Z,1.30
2023-05-14T14:59:52.836Z,0.90
2023-05-14T15:02:19.540Z,0.90
2023-05-14T15:04:46.167Z,1.00
2023-05-14T15:07:13.122Z,1.40
2023-05-14T15:09:39.699Z,1.00
2023-05-14T15:12:08.197Z,0.70
2023-05-14T15:14:34.740Z,0.70
2023-05-14T15:17:01.478Z,0.90
2023-05-14T15:19:28.864Z,1.10
2023-05-14T15:21:55.421Z,0.90
2023-05-14T15:24:23.540Z,0.80
2023-05-14T15:26:52.028Z,1.10
2023-05-14T15:29:20.253Z,1.00
2023-05-14T15:31:47.680Z,1.40
2023-05-14T15:34:14.567Z,0.90
2023-05-14T15:36:41.425Z,1.20
2023-05-14T15:39:09.749Z,0.70
2023-05-14T15:41:36.741Z,0.80
2023-05-14T15:44:03.504Z,1.10
2023-05-14T15:46:30.479Z,1.20
2023-05-14T15:48:57.415Z,1.10
2023-05-14T15:51:24.103Z,1.00
2023-05-14T15:53:53.482Z,0.90
2023-05-14T15:56:22.174Z,0.80
2023-05-14T15:58:49.204Z,0.80
2023-05-14T16:01:16.109Z,1.00
2023-05-14T16:03:42.786Z,1.00
2023-05-14T16:06:09.720Z,0.90
2023-05-14T16:08:36.685Z,0.60
2023-05-14T16:11:03.394Z,0.90
2023-05-14T16:13:30.268Z,0.50
2023-05-14T16:15:58.907Z,0.90
2023-05-14T16:18:25.728Z,0.80
2023-05-14T16:20:52.966Z,0.70
2023-05-14T16:23:19.654Z,0.90
2023-05-14T16:25:46.239Z,0.60
2023-05-14T16:28:13.140Z,0.40
2023-05-14T16:30:39.773Z,0.80
2023-05-14T16:33:06.415Z,0.90
2023-05-14T16:35:33.282Z,1.00
2023-05-14T16:38:01.080Z,0.80
2023-05-14T16:40:27.677Z,0.70
2023-05-14T16:42:54.133Z,0.80
2023-05-14T16:45:20.750Z,0.90
2023-05-14T16:47:47.306Z,1.10
2023-05-14T16:50:13.855Z,0.70
2023-05-14T16:52:40.612Z,0.50
2023-05-14T16:55:07.600Z,0.80
2023-05-14T16:57:34.567Z,1.00
2023-05-14T17:00:04.410Z,0.80
2023-05-14T17:02:31.996Z,0.60
2023-05-14T17:04:58.903Z,0.80
2023-05-14T17:07:25.830Z,0.80
2023-05-14T17:09:52.489Z,0.70
2023-05-14T17:12:18.964Z,1.00
2023-05-14T17:14:45.610Z,0.70
2023-05-14T17:17:12.086Z,0.80
2023-05-14T17:19:38.578Z,0.90
2023-05-14T17:22:05.481Z,0.80
2023-05-14T17:24:32.280Z,0.80
2023-05-14T17:26:58.943Z,0.70
2023-05-14T17:29:25.774Z,0.70
2023-05-14T17:31:52.547Z,0.50
2023-05-14T17:34:19.223Z,0.80
2023-05-14T17:36:45.898Z,0.70
2023-05-14T17:39:12.521Z,0.70
2023-05-14T17:41:41.111Z,0.50
2023-05-14T17:44:09.484Z,0.60
2023-05-14T17:46:37.494Z,0.70
2023-05-14T17:49:04.239Z,0.50
2023-05-14T17:51:30.974Z,0.70
2023-05-14T17:53:58.515Z,1.00
2023-05-14T17:56:25.394Z,0.70
2023-05-14T17:58:55.181Z,0.60
2023-05-14T18:01:21.733Z,0.80
2023-05-14T18:03:48.327Z,0.90
2023-05-14T18:06:16.151Z,0.70
2023-05-14T18:08:42.768Z,0.90
2023-05-14T18:11:09.276Z,1.00
2023-05-14T18:13:35.832Z,0.60
2023-05-14T18:16:03.449Z,0.90
2023-05-14T18:18:30.758Z,1.00
2023-05-14T18:20:57.516Z,1.00
2023-05-14T18:23:24.041Z,1.00
2023-05-14T18:25:50.616Z,1.00
2023-05-14T18:28:18.323Z,0.90
2023-05-14T18:30:44.934Z,0.80
2023-05-14T18:33:11.526Z,0.70
2023-05-14T18:35:38.224Z,0.70
2023-05-14T18:38:07.397Z,0.70
2023-05-14T18:40:34.446Z,1.30
2023-05-14T18:43:01.183Z,1.00
2023-05-14T18:45:27.952Z,1.00
2023-05-14T18:47:54.925Z,0.80
2023-05-14T18:50:21.569Z,1.10
2023-05-14T18:52:48.061Z,1.10
2023-05-14T18:55:14.738Z,1.00
2023-05-14T18:57:41.280Z,1.20
2023-05-14T19:00:08.341Z,1.00
2023-05-14T19:02:35.470Z,1.00
2023-05-14T19:05:02.396Z,1.00
2023-05-14T19:07:30.343Z,0.70
2023-05-14T19:09:56.784Z,1.20
2023-05-14T19:12:23.471Z,0.70
2023-05-14T19:14:49.981Z,0.80
2023-05-14T19:17:18.348Z,0.90
2023-05-14T19:19:45.930Z,1.00
2023-05-14T19:22:12.426Z,0.70
2023-05-14T19:24:39.572Z,0.80
2023-05-14T19:27:06.310Z,0.90
2023-05-14T19:29:33.264Z,0.80
2023-05-14T19:31:59.840Z,0.70
2023-05-14T19:34:26.591Z,0.60
2023-05-14T19:36:53.182Z,0.50
2023-05-14T19:39:19.747Z,0.60
2023-05-14T19:41:46.561Z,0.70
2023-05-14T19:44:13.096Z,0.90
2023-05-14T19:46:40.219Z,1.00
2023-05-14T19:49:06.794Z,0.80
2023-05-14T19:51:33.289Z,0.80
2023-05-14T19:53:59.844Z,0.90
2023-05-14T19:56:29.065Z,1.00
2023-05-14T19:58:55.720Z,0.80
2023-05-14T20:01:22.228Z,1.00
2023-05-14T20:03:48.930Z,1.00
2023-05-14T20:06:16.830Z,0.70
2023-05-14T20:08:44.778Z,1.00
2023-05-14T20:11:11.429Z,0.90
2023-05-14T20:13:37.910Z,1.20
2023-05-14T20:16:05.179Z,0.70
2023-05-14T20:18:32.146Z,0.70
2023-05-14T20:20:58.749Z,1.10
2023-05-14T20:23:25.360Z,1.20
2023-05-14T20:25:52.473Z,1.40
2023-05-14T20:28:19.002Z,0.80
2023-05-14T20:30:45.667Z,1.00
2023-05-14T20:33:13.186Z,0.70
2023-05-14T20:35:43.034Z,1.00
2023-05-14T20:38:12.104Z,1.00
2023-05-14T20:40:38.972Z,0.70
2023-05-14T20:43:05.696Z,0.80
2023-05-14T20:45:32.232Z,1.10
2023-05-14T20:47:58.880Z,0.70
2023-05-14T20:50:27.224Z,1.10
2023-05-14T20:52:54.656Z,0.90
2023-05-14T20:55:21.273Z,1.00
2023-05-14T20:57:49.048Z,1.30
2023-05-14T21:00:15.938Z,0.60
2023-05-14T21:02:42.613Z,1.50
2023-05-14T21:05:09.247Z,1.00
2023-05-14T21:07:36.730Z,1.00
2023-05-14T21:10:03.813Z,1.50
2023-05-14T21:12:30.367Z,1.20
2023-05-14T21:14:57.118Z,1.00
2023-05-14T21:17:24.686Z,1.70
2023-05-14T21:19:51.237Z,1.70
2023-05-14T21:22:17.836Z,1.80
2023-05-14T21:24:44.674Z,2.50
2023-05-14T21:27:11.252Z,2.70
2023-05-14T21:29:39.026Z,2.80
2023-05-14T21:32:05.967Z,3.00
2023-05-14T21:34:32.766Z,3.80
2023-05-14T21:36:59.290Z,2.90
2023-05-14T21:39:26.036Z,3.00
2023-05-14T21:41:52.692Z,3.40
2023-05-14T21:44:21.338Z,3.00
2023-05-14T21:46:48.473Z,2.60
2023-05-14T21:49:15.085Z,3.20
2023-05-14T21:51:42.285Z,2.20
2023-05-14T21:54:09.136Z,3.20
2023-05-14T21:56:36.697Z,2.60
2023-05-14T21:59:03.274Z,3.00
2023-05-14T22:01:30.512Z,3.00
2023-05-14T22:03:57.991Z,3.40
2023-05-14T22:06:24.715Z,2.70
2023-05-14T22:08:51.368Z,2.80
2023-05-14T22:11:17.993Z,2.20
2023-05-14T22:13:44.515Z,2.40
2023-05-14T22:16:13.354Z,1.80
2023-05-14T22:18:41.004Z,1.50
2023-05-14T22:21:07.722Z,1.70
2023-05-14T22:23:34.404Z,1.50
2023-05-14T22:26:00.940Z,1.40
2023-05-14T22:28:27.524Z,1.10
2023-05-14T22:30:55.812Z,1.50
2023-05-14T22:33:22.464Z,1.30
2023-05-14T22:35:48.927Z,1.20
2023-05-14T22:38:15.402Z,1.50
2023-05-14T22:40:42.054Z,1.30
2023-05-14T22:43:08.747Z,0.80
2023-05-14T22:45:35.407Z,1.20
2023-05-14T22:48:02.150Z,1.00
2023-05-14T22:50:28.655Z,0.90
2023-05-14T22:52:55.180Z,1.00
2023-05-14T22:55:21.946Z,1.00
2023-05-14T22:57:48.513Z,0.90
2023-05-14T23:00:15.601Z,0.80
2023-05-14T23:02:42.247Z,0.90
2023-05-14T23:05:09.109Z,1.10
2023-05-14T23:07:35.668Z,0.90
2023-05-14T23:10:02.229Z,0.90
2023-05-14T23:12:28.863Z,1.20
2023-05-14T23:14:55.409Z,0.80
2023-05-14T23:17:22.198Z,0.80
2023-05-14T23:19:48.771Z,0.80
2023-05-14T23:22:15.621Z,0.90
2023-05-14T23:24:42.209Z,0.80
2023-05-14T23:27:08.868Z,1.00
2023-05-14T23:29:35.476Z,0.70
2023-05-14T23:32:02.170Z,0.90
2023-05-14T23:34:28.753Z,0.90
2023-05-14T23:36:55.510Z,1.00
2023-05-14T23:39:22.126Z,0.90
2023-05-14T23:41:48.596Z,1.00
2023-05-14T23:44:15.418Z,0.90
2023-05-14T23:46:42.072Z,1.00
2023-05-14T23:49:08.652Z,0.60
2023-05-14T23:51:36.314Z,1.00
2023-05-14T23:54:03.217Z,0.70
2023-05-14T23:56:29.794Z,1.00
2023-05-14T23:58:56.447Z,0.80
